Time;durP1;ratioP1;P1;durP2;ratioP2;P2;SDS_P1;SDS_P2;PMS_P1;PMS_P2;Temp;Humidity;BMP_temperature;BMP_pressure;BME280_temperature;BME280_humidity;BME280_pressure;Samples;Min_cycle;Max_cycle;Signal;HPM_P1;HPM_P2
2023/02/06 00:00:43;;;;;;;2.88;0.60;;;4.80;87.00;;;;;;5023402;28;20762;-70
2023/02/06 00:03:09;;;;;;;2.08;0.98;;;4.80;87.10;;;;;;5023736;28;20480;-70
2023/02/06 00:05:34;;;;;;;1.40;0.68;;;4.80;87.10;;;;;;5030017;28;20028;-69
2023/02/06 00:08:00;;;;;;;0.70;0.70;;;4.80;87.20;;;;;;5025857;28;20480;-69
2023/02/06 00:10:25;;;;;;;2.67;0.95;;;4.80;87.20;;;;;;5022708;28;20055;-70
2023/02/06 00:12:51;;;;;;;1.65;0.68;;;4.80;87.10;;;;;;5031054;28;20786;-69
2023/02/06 00:15:17;;;;;;;2.40;0.63;;;4.80;87.20;;;;;;5032001;28;20029;-68
2023/02/06 00:17:42;;;;;;;3.65;1.00;;;4.80;87.20;;;;;;5027176;28;20026;-70
2023/02/06 00:20:09;;;;;;;1.05;0.80;;;4.80;87.30;;;;;;5030292;28;20041;-69
2023/02/06 00:22:35;;;;;;;1.52;0.88;;;4.70;87.20;;;;;;5030239;28;20025;-70
2023/02/06 00:25:01;;;;;;;3.33;0.80;;;4.70;87.30;;;;;;5030089;28;20022;-70
2023/02/06 00:27:26;;;;;;;0.75;0.60;;;4.70;87.30;;;;;;5030433;28;20022;-70
2023/02/06 00:29:52;;;;;;;1.80;0.55;;;4.70;87.30;;;;;;5030072;28;20033;-67
2023/02/06 00:32:17;;;;;;;2.03;0.90;;;4.70;87.20;;;;;;5029577;28;20028;-69
2023/02/06 00:34:43;;;;;;;6.22;1.50;;;4.70;87.30;;;;;;5031776;28;20703;-69
2023/02/06 00:37:09;;;;;;;1.15;0.80;;;4.70;87.10;;;;;;5029507;28;20396;-69
2023/02/06 00:39:35;;;;;;;1.75;0.70;;;4.70;87.00;;;;;;5033661;28;20029;-69
2023/02/06 00:42:00;;;;;;;2.38;0.85;;;4.60;87.00;;;;;;5029790;28;20029;-68
2023/02/06 00:44:26;;;;;;;3.58;0.90;;;4.60;87.10;;;;;;5029289;28;20041;-69
2023/02/06 00:46:51;;;;;;;1.77;0.65;;;4.50;87.20;;;;;;5029279;28;20113;-69
2023/02/06 00:49:17;;;;;;;2.15;0.90;;;4.50;87.30;;;;;;5029439;28;20108;-69
2023/02/06 00:51:42;;;;;;;1.88;0.70;;;4.50;87.30;;;;;;5031314;28;20053;-67
2023/02/06 00:54:08;;;;;;;1.35;0.73;;;4.60;87.30;;;;;;5029419;28;20053;-69
2023/02/06 00:56:34;;;;;;;3.17;1.30;;;4.60;87.30;;;;;;5027781;28;20047;-68
2023/02/06 00:59:00;;;;;;;1.02;0.60;;;4.60;87.30;;;;;;5028889;28;21116;-69
2023/02/06 01:01:26;;;;;;;0.75;0.70;;;4.50;87.20;;;;;;5020865;28;20029;-69
2023/02/06 01:03:53;;;;;;;3.60;0.52;;;4.50;87.20;;;;;;5028937;28;20809;-70
2023/02/06 01:06:19;;;;;;;2.13;0.90;;;4.50;87.20;;;;;;5027856;28;20029;-69
2023/02/06 01:08:46;;;;;;;1.60;0.57;;;4.50;87.10;;;;;;5028934;28;20009;-69
2023/02/06 01:11:14;;;;;;;1.23;0.57;;;4.50;87.30;;;;;;5028539;28;20025;-69
2023/02/06 01:13:41;;;;;;;2.47;0.57;;;4.50;87.20;;;;;;5027467;28;20049;-67
2023/02/06 01:16:11;;;;;;;1.50;0.60;;;4.60;87.20;;;;;;5028342;28;20020;-69
2023/02/06 01:18:37;;;;;;;0.82;0.70;;;4.60;87.10;;;;;;5028675;28;20025;-69
2023/02/06 01:21:11;;;;;;;1.60;0.52;;;4.60;87.10;;;;;;5028316;28;20476;-69
2023/02/06 01:23:38;;;;;;;0.47;0.45;;;4.50;87.10;;;;;;5028944;28;20048;-67
2023/02/06 01:26:10;;;;;;;1.50;0.80;;;4.40;87.30;;;;;;5028395;28;20030;-67
2023/02/06 01:28:37;;;;;;;3.17;0.70;;;4.40;87.40;;;;;;5031711;28;20045;-69
2023/02/06 01:31:15;;;;;;;2.30;0.90;;;4.40;87.40;;;;;;5028357;28;20014;-69
2023/02/06 01:33:42;;;;;;;1.10;0.65;;;4.40;87.50;;;;;;5028735;28;20112;-69
2023/02/06 01:36:08;;;;;;;0.82;0.68;;;4.40;87.50;;;;;;5028569;28;20105;-68
2023/02/06 01:38:34;;;;;;;3.05;1.10;;;4.40;87.40;;;;;;5028606;28;20037;-68
2023/02/06 01:41:00;;;;;;;1.40;0.82;;;4.40;87.40;;;;;;5028356;28;20269;-69
2023/02/06 01:43:35;;;;;;;1.25;0.70;;;4.40;87.40;;;;;;5027315;28;20041;-69
2023/02/06 01:46:01;;;;;;;1.55;0.60;;;4.30;87.30;;;;;;5028186;28;20488;-68
2023/02/06 01:48:34;;;;;;;2.25;0.80;;;4.40;87.30;;;;;;5028402;28;20033;-67
2023/02/06 01:51:00;;;;;;;;;;;4.40;87.30;;;;;;5031016;28;20075;-68
2023/02/06 01:53:28;;;;;;;1.77;0.90;;;4.40;87.40;;;;;;5027335;28;19909;-69
2023/02/06 01:55:57;;;;;;;1.45;1.20;;;4.40;87.40;;;;;;5028407;28;20044;-69
2023/02/06 01:58:42;;;;;;;2.78;1.00;;;4.30;88.00;;;;;;5028357;28;20021;-68
2023/02/06 02:01:09;;;;;;;1.52;0.80;;;4.40;87.50;;;;;;5028512;28;20108;-68
2023/02/06 02:03:37;;;;;;;0.70;0.70;;;4.40;87.50;;;;;;5028404;28;20032;-69
2023/02/06 02:06:09;;;;;;;1.08;0.57;;;4.40;87.30;;;;;;5028905;28;20108;-70
2023/02/06 02:08:41;;;;;;;1.20;0.52;;;4.50;87.40;;;;;;5028507;28;20036;-69
2023/02/06 02:11:09;;;;;;;1.70;0.73;;;4.50;87.30;;;;;;5028537;28;20477;-68
2023/02/06 02:13:37;;;;;;;14.35;1.10;;;4.50;87.30;;;;;;5028531;28;20021;-69
2023/02/06 02:16:16;;;;;;;1.15;0.60;;;4.50;87.20;;;;;;5027621;28;20041;-68
2023/02/06 02:19:20;;;;;;;0.47;0.47;;;4.60;87.30;;;;;;5026945;28;20034;-69
2023/02/06 02:22:31;;;;;;;1.40;0.70;;;4.60;87.20;;;;;;5028375;28;20056;-68
2023/02/06 02:25:32;;;;;;;1.60;0.70;;;4.50;87.20;;;;;;5028864;28;20034;-68
2023/02/06 02:28:22;;;;;;;1.95;0.98;;;4.50;87.30;;;;;;5031730;28;20021;-69
2023/02/06 02:31:12;;;;;;;0.95;0.63;;;4.60;87.40;;;;;;5031971;28;20033;-68
2023/02/06 02:34:11;;;;;;;1.30;0.68;;;4.60;87.40;;;;;;5032003;28;20627;-69
2023/02/06 02:36:49;;;;;;;0.90;0.70;;;4.60;87.30;;;;;;5032071;28;20060;-70
2023/02/06 02:39:39;;;;;;;0.70;0.70;;;4.60;87.30;;;;;;5011025;28;20026;-70
2023/02/06 02:42:21;;;;;;;3.90;1.30;;;4.70;87.30;;;;;;5028745;28;20393;-70
2023/02/06 02:44:53;;;;;;;1.42;0.95;;;4.70;87.30;;;;;;5032105;28;20025;-69
2023/02/06 02:47:22;;;;;;;2.72;1.05;;;4.70;87.20;;;;;;5031630;28;20488;-69
2023/02/06 02:49:49;;;;;;;2.60;0.75;;;4.60;87.20;;;;;;5031678;28;20437;-67
2023/02/06 02:52:15;;;;;;;3.33;1.25;;;4.60;87.20;;;;;;5031572;28;20036;-68
2023/02/06 02:54:40;;;;;;;2.33;1.05;;;4.60;87.30;;;;;;5030647;28;20022;-67
2023/02/06 02:57:16;;;;;;;3.03;0.75;;;4.60;87.30;;;;;;5031532;28;20092;-69
2023/02/06 02:59:48;;;;;;;0.95;0.70;;;4.70;87.30;;;;;;5032045;28;20032;-69
2023/02/06 03:02:31;;;;;;;3.60;1.00;;;4.80;87.30;;;;;;5030956;28;20040;-69
2023/02/06 03:05:04;;;;;;;0.90;0.77;;;4.70;87.20;;;;;;5031648;28;20028;-69
2023/02/06 03:07:46;;;;;;;1.77;0.70;;;4.80;87.30;;;;;;5030016;28;20076;-69
2023/02/06 03:10:17;;;;;;;1.38;0.85;;;4.80;87.30;;;;;;5031526;28;20033;-70
2023/02/06 03:12:50;;;;;;;2.43;0.80;;;4.80;87.30;;;;;;5030978;28;20025;-68
2023/02/06 03:15:15;;;;;;;;;;;4.80;87.30;;;;;;5031620;28;20026;-68
2023/02/06 03:17:59;;;;;;;4.68;0.73;;;4.90;87.30;;;;;;5031051;28;19996;-69
2023/02/06 03:20:25;;;;;;;2.10;1.02;;;4.80;87.30;;;;;;5031424;28;20068;-69
2023/02/06 03:22:53;;;;;;;4.70;0.95;;;4.80;87.20;;;;;;5031190;28;20033;-69
2023/02/06 03:25:26;;;;;;;2.00;0.70;;;4.80;87.30;;;;;;5029535;28;20032;-69
2023/02/06 03:27:53;;;;;;;2.90;0.90;;;4.80;87.40;;;;;;5029772;28;20038;-69
2023/02/06 03:30:20;;;;;;;3.85;0.95;;;4.80;87.30;;;;;;5030988;28;20033;-69
2023/02/06 03:32:51;;;;;;;0.98;0.65;;;4.90;87.30;;;;;;5030925;28;20476;-69
2023/02/06 03:35:24;;;;;;;1.47;0.70;;;4.90;87.30;;;;;;5030575;28;20033;-69
2023/02/06 03:37:50;;;;;;;1.73;0.70;;;4.90;87.30;;;;;;5029943;28;20408;-68
2023/02/06 03:40:16;;;;;;;3.45;0.65;;;4.90;87.30;;;;;;5028538;28;20029;-69
2023/02/06 03:42:49;;;;;;;1.27;0.77;;;4.90;87.30;;;;;;5029450;28;20042;-69
2023/02/06 03:45:34;;;;;;;;;;;4.90;87.30;;;;;;5030054;28;20040;-69
2023/02/06 03:48:05;;;;;;;0.82;0.60;;;4.90;87.30;;;;;;5030153;28;19911;-68
2023/02/06 03:50:32;;;;;;;0.60;0.60;;;4.80;87.50;;;;;;5030793;28;20029;-70
2023/02/06 03:53:00;;;;;;;1.42;0.60;;;4.80;87.70;;;;;;5030688;28;20030;-69
2023/02/06 03:55:26;;;;;;;0.73;0.68;;;4.80;87.70;;;;;;5017409;28;20524;-68
2023/02/06 03:57:56;;;;;;;3.25;0.77;;;4.80;88.30;;;;;;5030738;28;20072;-69
2023/02/06 04:00:22;;;;;;;0.68;0.57;;;4.70;87.70;;;;;;5030368;28;20204;-69
2023/02/06 04:02:50;;;;;;;0.40;0.40;;;4.70;87.70;;;;;;5030485;28;20025;-69
2023/02/06 04:05:17;;;;;;;1.63;0.77;;;4.60;87.80;;;;;;5030330;28;20037;-67
2023/02/06 04:07:43;;;;;;;0.82;0.60;;;4.60;87.80;;;;;;5030336;28;20030;-68
2023/02/06 04:10:09;;;;;;;0.63;0.50;;;4.60;87.80;;;;;;5030138;28;20713;-69
2023/02/06 04:12:35;;;;;;;0.80;0.60;;;4.60;87.80;;;;;;5030301;28;20032;-69
2023/02/06 04:15:00;;;;;;;1.27;0.40;;;4.60;87.90;;;;;;5029919;28;20029;-69
2023/02/06 04:17:26;;;;;;;1.55;0.90;;;4.70;88.00;;;;;;5030053;28;20496;-68
2023/02/06 04:19:51;;;;;;;0.63;0.60;;;4.60;87.90;;;;;;5030071;28;20594;-69
2023/02/06 04:22:17;;;;;;;3.08;0.68;;;4.50;87.80;;;;;;5030316;28;20075;-67
2023/02/06 04:24:42;;;;;;;2.55;0.70;;;4.60;87.80;;;;;;5028715;28;20787;-68
2023/02/06 04:27:10;;;;;;;1.48;0.70;;;4.60;87.70;;;;;;5029832;28;20064;-70
2023/02/06 04:29:36;;;;;;;1.45;0.63;;;4.60;87.70;;;;;;5028337;28;20025;-69
2023/02/06 04:32:02;;;;;;;1.67;0.70;;;4.50;87.50;;;;;;5029648;28;20055;-69
2023/02/06 04:34:28;;;;;;;0.60;0.60;;;4.50;87.80;;;;;;5029751;28;20083;-70
2023/02/06 04:36:54;;;;;;;0.82;0.75;;;4.40;88.00;;;;;;5029534;28;20052;-69
2023/02/06 04:39:20;;;;;;;0.40;0.40;;;4.40;88.30;;;;;;5029774;28;20553;-69
2023/02/06 04:41:46;;;;;;;2.05;0.60;;;4.40;88.30;;;;;;5029908;28;20026;-68
2023/02/06 04:44:11;;;;;;;2.08;0.80;;;4.40;88.40;;;;;;5028991;28;20025;-68
2023/02/06 04:46:37;;;;;;;2.95;0.73;;;4.40;88.40;;;;;;5028254;28;20048;-69
2023/02/06 04:49:02;;;;;;;2.65;0.65;;;4.40;88.40;;;;;;5028961;28;20021;-69
2023/02/06 04:51:28;;;;;;;2.05;0.55;;;4.50;88.80;;;;;;5029617;28;20029;-69
2023/02/06 04:53:54;;;;;;;0.55;0.55;;;4.50;88.10;;;;;;5029557;28;20053;-68
2023/02/06 04:56:19;;;;;;;0.70;0.70;;;4.40;88.10;;;;;;5029371;28;20030;-69
2023/02/06 04:58:45;;;;;;;1.65;0.90;;;4.40;88.00;;;;;;5029540;28;20451;-69
2023/02/06 05:01:11;;;;;;;0.68;0.68;;;4.50;88.10;;;;;;5029090;28;20076;-69
2023/02/06 05:03:36;;;;;;;0.60;0.60;;;4.50;87.90;;;;;;5029788;28;20025;-66
2023/02/06 05:06:03;;;;;;;0.65;0.60;;;4.50;87.70;;;;;;5029355;28;20120;-69
2023/02/06 05:08:29;;;;;;;0.65;0.63;;;4.50;87.60;;;;;;5029686;28;20048;-69
2023/02/06 05:10:55;;;;;;;2.15;0.60;;;4.50;87.60;;;;;;5029434;28;20428;-68
2023/02/06 05:13:21;;;;;;;0.93;0.73;;;4.50;87.50;;;;;;5028199;28;20013;-69
2023/02/06 05:15:47;;;;;;;0.50;0.50;;;4.50;87.50;;;;;;5028858;28;20489;-66
2023/02/06 05:18:14;;;;;;;0.60;0.60;;;4.50;87.50;;;;;;5029138;28;20041;-67
2023/02/06 05:20:39;;;;;;;2.45;0.60;;;4.50;87.40;;;;;;5028978;28;20116;-69
2023/02/06 05:23:05;;;;;;;2.00;0.60;;;4.50;87.30;;;;;;5029293;28;20105;-67
2023/02/06 05:25:31;;;;;;;1.70;0.40;;;4.50;87.30;;;;;;5028809;28;20175;-69
2023/02/06 05:27:56;;;;;;;0.68;0.40;;;4.50;87.30;;;;;;5027939;28;20033;-69
2023/02/06 05:30:23;;;;;;;0.50;0.40;;;4.50;87.30;;;;;;5028418;28;20044;-69
2023/02/06 05:32:49;;;;;;;1.73;0.70;;;4.40;87.30;;;;;;5029278;28;20025;-69
2023/02/06 05:35:14;;;;;;;1.75;0.70;;;4.40;87.40;;;;;;5028707;28;20022;-69
2023/02/06 05:37:40;;;;;;;0.80;0.80;;;4.40;87.50;;;;;;5028863;28;20018;-69
2023/02/06 05:40:06;;;;;;;0.63;0.63;;;4.30;87.40;;;;;;5028942;28;20040;-68
2023/02/06 05:42:32;;;;;;;2.08;0.80;;;4.30;87.50;;;;;;5028968;28;20036;-70
2023/02/06 05:44:57;;;;;;;2.88;0.80;;;4.20;87.50;;;;;;5028385;28;20108;-70
2023/02/06 05:47:24;;;;;;;0.63;0.63;;;4.20;87.50;;;;;;5028660;28;20649;-70
2023/02/06 05:49:50;;;;;;;0.85;0.70;;;4.20;87.60;;;;;;5028083;28;20480;-68
2023/02/06 05:52:16;;;;;;;1.00;0.68;;;4.20;87.60;;;;;;5028849;28;20030;-67
2023/02/06 05:54:41;;;;;;;0.40;0.40;;;4.10;87.50;;;;;;5027935;28;20029;-68
2023/02/06 05:57:07;;;;;;;0.60;0.60;;;4.10;87.60;;;;;;5027279;28;20475;-68
2023/02/06 05:59:33;;;;;;;0.60;0.60;;;4.10;87.60;;;;;;5031512;28;20030;-68
2023/02/06 06:01:58;;;;;;;0.70;0.70;;;4.20;87.70;;;;;;5032457;28;20041;-68
2023/02/06 06:04:24;;;;;;;0.68;0.47;;;4.20;87.60;;;;;;5032470;28;20101;-70
2023/02/06 06:06:50;;;;;;;0.60;0.60;;;4.10;87.50;;;;;;5032311;28;20040;-69
2023/02/06 06:09:16;;;;;;;0.60;0.60;;;4.10;87.50;;;;;;5032676;28;20177;-68
2023/02/06 06:11:42;;;;;;;0.63;0.63;;;4.10;87.50;;;;;;5032233;28;20033;-68
2023/02/06 06:14:07;;;;;;;0.70;0.70;;;4.20;87.70;;;;;;5032448;28;20358;-68
2023/02/06 06:16:33;;;;;;;0.63;0.57;;;4.20;87.60;;;;;;5032299;28;20040;-68
2023/02/06 06:19:00;;;;;;;0.70;0.70;;;4.20;87.60;;;;;;5032136;28;20033;-68
2023/02/06 06:21:26;;;;;;;0.60;0.60;;;4.20;87.60;;;;;;5032110;28;20028;-68
2023/02/06 06:23:51;;;;;;;0.50;0.50;;;4.20;87.60;;;;;;5032182;28;20021;-69
2023/02/06 06:26:17;;;;;;;0.85;0.82;;;4.20;87.60;;;;;;5031752;28;20033;-69
2023/02/06 06:28:42;;;;;;;0.60;0.60;;;4.20;87.60;;;;;;5032001;28;20423;-70
2023/02/06 06:31:12;;;;;;;0.57;0.57;;;4.20;87.50;;;;;;5031443;28;20025;-70
2023/02/06 06:33:38;;;;;;;0.90;0.35;;;4.20;87.50;;;;;;5030099;28;20022;-69
2023/02/06 06:36:05;;;;;;;1.17;0.60;;;4.20;87.50;;;;;;5031777;28;20029;-69
2023/02/06 06:38:31;;;;;;;1.48;0.60;;;4.20;87.40;;;;;;5032013;28;20021;-68
2023/02/06 06:40:56;;;;;;;0.93;0.65;;;4.20;87.50;;;;;;5030773;28;20032;-69
2023/02/06 06:43:22;;;;;;;0.60;0.60;;;4.10;87.40;;;;;;5031449;28;20044;-69
2023/02/06 06:45:48;;;;;;;0.70;0.70;;;4.10;87.40;;;;;;5031017;28;20024;-68
2023/02/06 06:48:13;;;;;;;0.80;0.80;;;4.20;87.50;;;;;;5030853;28;20033;-68
2023/02/06 06:50:39;;;;;;;0.55;0.55;;;4.20;87.50;;;;;;5032081;28;20087;-67
2023/02/06 06:53:04;;;;;;;1.38;0.82;;;4.20;87.40;;;;;;5031367;28;20089;-69
2023/02/06 06:55:30;;;;;;;0.68;0.68;;;4.20;87.40;;;;;;5024398;28;20051;-68
2023/02/06 06:57:56;;;;;;;0.43;0.43;;;4.20;87.50;;;;;;5024731;28;20476;-68
2023/02/06 07:00:22;;;;;;;0.65;0.65;;;4.20;87.50;;;;;;5023267;28;20043;-68
2023/02/06 07:02:47;;;;;;;0.80;0.80;;;4.20;87.50;;;;;;5031538;28;20033;-70
2023/02/06 07:05:13;;;;;;;0.60;0.60;;;4.20;87.50;;;;;;5030816;28;20027;-69
2023/02/06 07:07:38;;;;;;;0.70;0.70;;;4.20;87.60;;;;;;5031102;28;20105;-68
2023/02/06 07:10:06;;;;;;;0.95;0.70;;;4.30;87.60;;;;;;5030717;28;20439;-67
2023/02/06 07:12:32;;;;;;;2.45;0.55;;;4.30;87.50;;;;;;5031180;28;20048;-70
2023/02/06 07:14:58;;;;;;;1.38;0.75;;;4.30;87.60;;;;;;5031674;28;20022;-69
2023/02/06 07:17:23;;;;;;;0.73;0.70;;;4.30;87.70;;;;;;5029604;28;20028;-69
2023/02/06 07:19:51;;;;;;;1.30;0.60;;;4.30;88.40;;;;;;5030459;28;20109;-67
2023/02/06 07:22:18;;;;;;;1.52;0.70;;;4.30;87.70;;;;;;5027924;28;20120;-71
2023/02/06 07:24:43;;;;;;;1.60;0.80;;;4.30;87.70;;;;;;5030624;28;20090;-70
2023/02/06 07:27:09;;;;;;;0.85;0.85;;;4.30;87.70;;;;;;5029880;28;20467;-70
2023/02/06 07:29:34;;;;;;;1.00;0.90;;;4.40;87.80;;;;;;5033924;28;20037;-71
2023/02/06 07:32:00;;;;;;;7.32;1.30;;;4.40;87.70;;;;;;5028214;28;20026;-71
2023/02/06 07:34:26;;;;;;;0.95;0.80;;;4.40;87.80;;;;;;5031358;28;20013;-72
2023/02/06 07:36:51;;;;;;;1.50;0.70;;;4.40;87.90;;;;;;5030238;28;20369;-68
2023/02/06 07:39:17;;;;;;;0.65;0.65;;;4.30;87.90;;;;;;5029511;28;20028;-69
2023/02/06 07:41:44;;;;;;;1.25;1.00;;;4.30;87.90;;;;;;5030352;28;20563;-69
2023/02/06 07:44:10;;;;;;;0.82;0.60;;;4.30;88.00;;;;;;5030586;28;20021;-68
2023/02/06 07:46:36;;;;;;;1.10;0.70;;;4.40;88.10;;;;;;5029025;28;20029;-66
2023/02/06 07:49:01;;;;;;;3.17;0.90;;;4.40;88.10;;;;;;5029431;28;20028;-66
2023/02/06 07:51:27;;;;;;;0.77;0.70;;;4.40;88.10;;;;;;5030537;28;20029;-67
2023/02/06 07:53:53;;;;;;;1.95;0.80;;;4.40;88.10;;;;;;5029785;28;20026;-67
2023/02/06 07:56:22;;;;;;;1.75;0.80;;;4.40;88.10;;;;;;5030650;28;20706;-67
2023/02/06 07:58:54;;;;;;;0.45;0.45;;;4.40;88.10;;;;;;5029589;28;20161;-67
2023/02/06 08:01:22;;;;;;;0.70;0.70;;;4.40;88.10;;;;;;5029276;28;20045;-67
2023/02/06 08:03:49;;;;;;;1.42;0.80;;;4.50;88.10;;;;;;5028621;28;20093;-66
2023/02/06 08:06:15;;;;;;;2.53;0.60;;;4.50;88.10;;;;;;5029152;28;20073;-67
2023/02/06 08:08:42;;;;;;;1.65;0.55;;;4.50;88.10;;;;;;5028835;28;20017;-67
2023/02/06 08:11:10;;;;;;;0.43;0.40;;;4.60;88.00;;;;;;5029793;28;20036;-67
2023/02/06 08:13:36;;;;;;;1.08;0.68;;;4.70;88.10;;;;;;5028833;28;20492;-67
2023/02/06 08:16:08;;;;;;;0.75;0.75;;;4.70;88.00;;;;;;5028623;28;20045;-67
2023/02/06 08:18:34;;;;;;;0.52;0.52;;;4.70;87.90;;;;;;5029058;28;20021;-69
2023/02/06 08:21:02;;;;;;;0.63;0.63;;;4.80;88.20;;;;;;5029432;28;20029;-67
2023/02/06 08:23:27;;;;;;;0.80;0.60;;;4.80;88.10;;;;;;5033848;28;20445;-67
2023/02/06 08:26:07;;;;;;;2.47;0.85;;;4.80;88.20;;;;;;5030211;28;20057;-67
2023/02/06 08:28:36;;;;;;;0.80;0.70;;;4.80;88.10;;;;;;5028089;28;20033;-67
2023/02/06 08:31:14;;;;;;;0.88;0.75;;;4.90;88.20;;;;;;5029666;28;20116;-67
2023/02/06 08:33:40;;;;;;;0.60;0.60;;;4.90;88.10;;;;;;5028188;28;20021;-68
2023/02/06 08:36:07;;;;;;;0.52;0.52;;;4.90;88.00;;;;;;5027183;28;20018;-68
2023/02/06 08:38:33;;;;;;;2.83;1.10;;;4.90;87.90;;;;;;5024443;28;20116;-66
2023/02/06 08:40:58;;;;;;;1.20;0.88;;;5.00;88.10;;;;;;5028231;28;20080;-66
2023/02/06 08:43:24;;;;;;;1.77;0.90;;;5.00;88.10;;;;;;5027100;28;20072;-68
2023/02/06 08:45:51;;;;;;;1.38;0.70;;;5.00;88.10;;;;;;5026536;28;20030;-67
2023/02/06 08:48:17;;;;;;;1.42;0.63;;;5.10;88.10;;;;;;5026401;28;20059;-67
2023/02/06 08:50:43;;;;;;;0.75;0.60;;;5.10;88.10;;;;;;5019306;28;20047;-66
2023/02/06 08:53:09;;;;;;;0.85;0.77;;;5.10;88.00;;;;;;5027851;28;20030;-68
2023/02/06 08:55:35;;;;;;;0.80;0.60;;;5.10;88.10;;;;;;5027425;28;20369;-66
2023/02/06 08:58:01;;;;;;;0.82;0.70;;;5.10;88.10;;;;;;5027304;28;20028;-68
2023/02/06 09:00:27;;;;;;;2.38;1.10;;;5.20;88.20;;;;;;5023081;28;20033;-68
2023/02/06 09:02:52;;;;;;;0.80;0.73;;;5.20;88.10;;;;;;5022660;28;20029;-68
2023/02/06 09:05:19;;;;;;;0.57;0.57;;;5.20;88.00;;;;;;5025484;28;20056;-67
2023/02/06 09:07:45;;;;;;;0.65;0.65;;;5.30;87.90;;;;;;5024339;28;20025;-67
2023/02/06 09:10:11;;;;;;;1.95;0.70;;;5.40;87.90;;;;;;5026835;28;20033;-68
2023/02/06 09:12:37;;;;;;;0.90;0.60;;;5.50;87.70;;;;;;5023794;28;20032;-68
2023/02/06 09:15:03;;;;;;;1.90;0.90;;;5.60;87.60;;;;;;5028211;28;20038;-67
2023/02/06 09:17:30;;;;;;;2.72;1.00;;;5.60;87.50;;;;;;5026926;28;20025;-68
2023/02/06 09:19:57;;;;;;;1.48;1.02;;;5.70;87.40;;;;;;5027447;28;20111;-68
2023/02/06 09:22:22;;;;;;;4.20;1.23;;;5.80;87.30;;;;;;5027262;28;20029;-66
2023/02/06 09:24:48;;;;;;;0.70;0.70;;;5.80;87.20;;;;;;5028468;28;20021;-68
2023/02/06 09:27:14;;;;;;;1.17;0.80;;;5.90;87.10;;;;;;5028575;28;20038;-68
2023/02/06 09:29:40;;;;;;;1.15;0.80;;;6.00;87.00;;;;;;5028713;28;20030;-68
2023/02/06 09:32:06;;;;;;;0.80;0.80;;;6.00;87.00;;;;;;5028907;28;20037;-67
2023/02/06 09:34:32;;;;;;;0.77;0.77;;;6.10;86.90;;;;;;5033952;28;20079;-68
2023/02/06 09:37:01;;;;;;;1.42;0.70;;;6.20;86.70;;;;;;5034091;28;20026;-67
2023/02/06 09:39:26;;;;;;;0.77;0.70;;;6.30;86.70;;;;;;5022567;28;20060;-68
2023/02/06 09:42:13;;;;;;;0.82;0.65;;;6.40;86.60;;;;;;5030903;28;20499;-68
2023/02/06 09:44:44;;;;;;;3.35;0.90;;;6.60;86.40;;;;;;5030160;28;20044;-67
2023/02/06 09:47:22;;;;;;;0.90;0.73;;;6.60;86.20;;;;;;5034446;28;20488;-68
2023/02/06 09:50:12;;;;;;;1.92;0.75;;;6.70;86.20;;;;;;5032090;28;20503;-67
2023/02/06 09:52:52;;;;;;;0.85;0.65;;;6.80;86.30;;;;;;5035060;28;20512;-68
2023/02/06 09:55:39;;;;;;;1.13;0.75;;;6.80;86.10;;;;;;5032653;28;20380;-68
2023/02/06 09:58:40;;;;;;;1.85;0.98;;;6.90;86.10;;;;;;5035027;28;20097;-68
2023/02/06 10:01:29;;;;;;;1.30;0.90;;;6.90;86.20;;;;;;5025853;28;20022;-68
2023/02/06 10:04:16;;;;;;;1.92;0.90;;;6.90;86.30;;;;;;5032840;28;20632;-68
2023/02/06 10:07:14;;;;;;;2.38;0.60;;;7.00;86.30;;;;;;5026175;28;20029;-68
2023/02/06 10:09:45;;;;;;;1.58;1.10;;;7.10;86.30;;;;;;5031579;28;20029;-69
2023/02/06 10:12:13;;;;;;;2.60;0.90;;;7.10;86.30;;;;;;5031546;28;20478;-68
2023/02/06 10:14:55;;;;;;;2.75;0.90;;;7.20;86.40;;;;;;5033215;28;20594;-68
2023/02/06 10:17:26;;;;;;;1.98;0.75;;;7.20;86.40;;;;;;5032286;28;20049;-67
2023/02/06 10:19:58;;;;;;;1.55;0.90;;;7.20;86.40;;;;;;5030667;28;21854;-68
2023/02/06 10:22:35;;;;;;;4.55;0.90;;;7.40;86.60;;;;;;5031046;28;20029;-69
2023/02/06 10:25:19;;;;;;;4.50;0.75;;;7.40;86.50;;;;;;5031138;28;20025;-66
2023/02/06 10:27:48;;;;;;;2.15;0.80;;;7.50;86.50;;;;;;5026889;28;20026;-69
2023/02/06 10:30:21;;;;;;;1.30;0.80;;;7.60;86.40;;;;;;5032039;28;20022;-68
2023/02/06 10:33:09;;;;;;;1.65;1.00;;;7.70;86.20;;;;;;5031302;28;20028;-67
2023/02/06 10:35:55;;;;;;;0.93;0.70;;;7.80;86.10;;;;;;5029876;28;20017;-67
2023/02/06 10:38:37;;;;;;;2.80;0.90;;;7.90;85.90;;;;;;5030653;28;20037;-67
2023/02/06 10:41:20;;;;;;;1.55;0.82;;;8.00;85.90;;;;;;5027162;28;20037;-66
2023/02/06 10:43:49;;;;;;;1.48;0.85;;;8.10;85.90;;;;;;5030705;28;21327;-69
2023/02/06 10:46:43;;;;;;;3.75;0.82;;;8.10;85.90;;;;;;5028018;28;20026;-68
2023/02/06 10:49:29;;;;;;;2.28;0.70;;;8.30;85.90;;;;;;5028321;28;20029;-68
2023/02/06 10:52:02;;;;;;;0.82;0.80;;;8.30;85.70;;;;;;5030507;28;20088;-67
2023/02/06 10:54:34;;;;;;;0.70;0.70;;;8.40;85.70;;;;;;5026077;28;20033;-67
2023/02/06 10:57:01;;;;;;;2.47;1.00;;;8.40;85.60;;;;;;5030449;28;20024;-69
2023/02/06 10:59:38;;;;;;;0.63;0.63;;;8.50;85.60;;;;;;5031740;28;20112;-68
2023/02/06 11:02:06;;;;;;;2.05;0.70;;;8.60;85.60;;;;;;5029807;28;20025;-68
2023/02/06 11:04:41;;;;;;;2.47;0.70;;;8.70;85.30;;;;;;5030278;28;20029;-68
2023/02/06 11:07:15;;;;;;;2.70;0.93;;;8.80;85.20;;;;;;5029853;28;20032;-69
2023/02/06 11:09:40;;;;;;;0.85;0.73;;;8.80;85.20;;;;;;5029355;28;20021;-68
2023/02/06 11:12:21;;;;;;;2.80;0.85;;;8.90;85.10;;;;;;5027397;28;20025;-68
2023/02/06 11:14:49;;;;;;;5.38;1.02;;;8.90;85.10;;;;;;5030387;28;20028;-68
2023/02/06 11:17:17;;;;;;;0.43;0.43;;;9.00;85.10;;;;;;5029408;28;20137;-68
2023/02/06 11:19:45;;;;;;;1.58;0.90;;;9.10;85.10;;;;;;5029210;28;20495;-68
2023/02/06 11:22:14;;;;;;;0.50;0.50;;;9.10;85.00;;;;;;5029681;28;20041;-69
2023/02/06 11:24:58;;;;;;;1.27;0.90;;;9.10;85.50;;;;;;5028492;28;20037;-68
2023/02/06 11:27:25;;;;;;;0.75;0.57;;;9.10;84.80;;;;;;5028531;28;20041;-69
2023/02/06 11:29:50;;;;;;;1.52;0.93;;;9.10;84.80;;;;;;5023347;28;20032;-66
2023/02/06 11:32:39;;;;;;;1.83;0.73;;;9.10;84.80;;;;;;5030103;28;20029;-69
2023/02/06 11:35:22;;;;;;;1.33;0.70;;;9.10;85.00;;;;;;5025057;28;20029;-67
2023/02/06 11:37:52;;;;;;;0.90;0.65;;;9.10;84.80;;;;;;5032279;28;20021;-68
2023/02/06 11:40:18;;;;;;;1.63;0.60;;;9.20;84.80;;;;;;5030005;28;20025;-68
2023/02/06 11:43:06;;;;;;;1.52;0.70;;;9.20;84.70;;;;;;5029999;28;20044;-69
2023/02/06 11:45:32;;;;;;;1.35;0.70;;;9.30;84.70;;;;;;5027166;28;20041;-69
2023/02/06 11:47:59;;;;;;;0.63;0.50;;;9.30;85.10;;;;;;5027523;28;20021;-68
2023/02/06 11:50:34;;;;;;;1.30;0.63;;;9.30;84.40;;;;;;5024944;28;20033;-67
2023/02/06 11:53:09;;;;;;;4.57;0.90;;;9.40;84.50;;;;;;5028195;28;20017;-68
2023/02/06 11:55:37;;;;;;;3.05;0.90;;;9.40;84.40;;;;;;5025237;28;20020;-68
2023/02/06 11:58:11;;;;;;;1.38;0.70;;;9.40;84.20;;;;;;5044519;28;20029;-66
2023/02/06 12:00:50;;;;;;;1.17;0.80;;;9.50;84.30;;;;;;5025263;28;20049;-66
2023/02/06 12:03:49;;;;;;;2.22;0.80;;;9.50;84.00;;;;;;5029498;28;20033;-67
2023/02/06 12:06:33;;;;;;;1.40;0.70;;;9.40;83.50;;;;;;5029564;28;20037;-66
2023/02/06 12:09:02;;;;;;;3.50;0.70;;;9.40;84.10;;;;;;5027510;28;20057;-67
2023/02/06 12:11:55;;;;;;;1.58;0.85;;;9.50;84.20;;;;;;5027065;28;20053;-66
2023/02/06 12:14:42;;;;;;;1.08;0.68;;;9.80;83.80;;;;;;5027735;28;20635;-68
2023/02/06 12:17:24;;;;;;;0.43;0.43;;;10.40;82.50;;;;;;5026953;28;20048;-68
2023/02/06 12:20:15;;;;;;;1.30;0.55;;;10.70;81.40;;;;;;5028291;28;20029;-66
2023/02/06 12:22:46;;;;;;;0.90;0.60;;;10.60;80.80;;;;;;5027151;28;20104;-67
2023/02/06 12:25:26;;;;;;;2.70;0.60;;;10.30;81.00;;;;;;5026734;28;20571;-66
2023/02/06 12:28:14;;;;;;;1.40;0.50;;;10.10;81.50;;;;;;5026943;28;20060;-66
2023/02/06 12:31:03;;;;;;;3.63;0.90;;;10.00;82.20;;;;;;5026072;28;20025;-67
2023/02/06 12:33:38;;;;;;;1.77;0.77;;;9.90;82.30;;;;;;5019772;28;21507;-67
2023/02/06 12:36:19;;;;;;;3.33;0.50;;;9.90;82.50;;;;;;5022235;28;20557;-66
2023/02/06 12:39:01;;;;;;;1.50;0.60;;;9.80;82.60;;;;;;5022255;28;20188;-67
2023/02/06 12:42:00;;;;;;;2.03;0.80;;;9.80;82.60;;;;;;5024234;28;20072;-67
2023/02/06 12:44:52;;;;;;;2.00;0.65;;;10.20;82.70;;;;;;5022520;28;20063;-66
2023/02/06 12:47:30;;;;;;;1.42;0.63;;;10.20;81.90;;;;;;5027925;28;20033;-67
2023/02/06 12:50:03;;;;;;;1.55;0.60;;;10.30;81.80;;;;;;5024928;28;20061;-67
2023/02/06 12:52:49;;;;;;;1.38;0.68;;;10.40;81.50;;;;;;5026770;28;20038;-67
2023/02/06 12:55:35;;;;;;;3.03;0.73;;;10.40;81.30;;;;;;5026657;28;20030;-66
2023/02/06 12:58:02;;;;;;;1.83;0.70;;;10.40;81.40;;;;;;5003803;28;20399;-68
2023/02/06 13:01:01;;;;;;;2.17;1.00;;;10.30;81.40;;;;;;5023932;28;20057;-67
2023/02/06 13:03:42;;;;;;;3.17;1.00;;;10.20;80.90;;;;;;5012978;28;20052;-66
2023/02/06 13:06:19;;;;;;;0.55;0.55;;;10.00;81.10;;;;;;5023869;28;20084;-66
2023/02/06 13:08:55;;;;;;;2.15;0.57;;;10.00;81.30;;;;;;5021523;28;20773;-66
2023/02/06 13:11:20;;;;;;;1.48;0.70;;;9.90;81.50;;;;;;5023475;28;20047;-65
2023/02/06 13:13:51;;;;;;;1.90;0.50;;;9.70;81.30;;;;;;5026925;28;20112;-67
2023/02/06 13:16:17;;;;;;;0.82;0.73;;;9.60;81.70;;;;;;5026930;28;20017;-66